sensor_id;sensor_type;location;lat;lon;timestamp;pressure;altitude;pressure_sealevel;temperature;humidity
48244;BME280;34053;51.088;6.572;2023-07-20T00:00:36;100823.91;;;20.88;51.77
48244;BME280;34053;51.088;6.572;2023-07-20T00:03:27;100826.81;;;20.85;52.01
48244;BME280;34053;51.088;6.572;2023-07-20T00:06:17;100831.06;;;20.87;52.83
48244;BME280;34053;51.088;6.572;2023-07-20T00:09:08;100822.97;;;20.89;52.55
48244;BME280;34053;51.088;6.572;2023-07-20T00:11:59;100824.66;;;20.90;52.45
48244;BME280;34053;51.088;6.572;2023-07-20T00:14:50;100824.56;;;20.91;52.33
48244;BME280;34053;51.088;6.572;2023-07-20T00:17:44;100821.53;;;20.70;55.48
48244;BME280;34053;51.088;6.572;2023-07-20T00:20:35;100813.69;;;20.82;53.40
48244;BME280;34053;51.088;6.572;2023-07-20T00:23:26;100820.41;;;20.74;54.08
48244;BME280;34053;51.088;6.572;2023-07-20T00:26:17;100817.78;;;20.47;56.75
48244;BME280;34053;51.088;6.572;2023-07-20T00:29:08;100812.78;;;20.68;53.91
48244;BME280;34053;51.088;6.572;2023-07-20T00:31:59;100812.78;;;20.68;53.96
48244;BME280;34053;51.088;6.572;2023-07-20T00:34:49;100813.53;;;20.70;53.58
48244;BME280;34053;51.088;6.572;2023-07-20T00:37:40;100810.31;;;20.65;54.98
48244;BME280;34053;51.088;6.572;2023-07-20T00:40:37;100811.28;;;20.64;55.56
48244;BME280;34053;51.088;6.572;2023-07-20T00:43:28;100813.63;;;20.56;54.51
48244;BME280;34053;51.088;6.572;2023-07-20T00:46:23;100814.56;;;20.55;54.58
48244;BME280;34053;51.088;6.572;2023-07-20T00:49:16;100810.31;;;20.65;54.42
48244;BME280;34053;51.088;6.572;2023-07-20T00:52:08;100819.84;;;20.69;54.20
48244;BME280;34053;51.088;6.572;2023-07-20T00:55:01;100811.41;;;20.63;54.39
48244;BME280;34053;51.088;6.572;2023-07-20T00:57:52;100811.78;;;20.43;57.13
48244;BME280;34053;51.088;6.572;2023-07-20T01:00:43;100815.94;;;20.48;57.65
48244;BME280;34053;51.088;6.572;2023-07-20T01:03:34;100820.75;;;20.42;56.68
48244;BME280;34053;51.088;6.572;2023-07-20T01:06:31;100819.78;;;20.43;57.55
48244;BME280;34053;51.088;6.572;2023-07-20T01:09:55;100832.88;;;20.47;56.89
48244;BME280;34053;51.088;6.572;2023-07-20T01:12:52;100836.50;;;20.45;56.51
48244;BME280;34053;51.088;6.572;2023-07-20T01:15:49;100827.63;;;20.32;57.78
48244;BME280;34053;51.088;6.572;2023-07-20T01:18:41;100826.19;;;20.41;59.74
48244;BME280;34053;51.088;6.572;2023-07-20T01:21:50;100821.34;;;20.33;60.78
48244;BME280;34053;51.088;6.572;2023-07-20T01:31:24;100817.31;;;20.40;59.21
48244;BME280;34053;51.088;6.572;2023-07-20T01:34:17;100815.09;;;20.07;62.10
48244;BME280;34053;51.088;6.572;2023-07-20T01:37:09;100816.53;;;19.98;61.08
48244;BME280;34053;51.088;6.572;2023-07-20T01:40:01;100819.91;;;20.15;61.04
48244;BME280;34053;51.088;6.572;2023-07-20T01:42:52;100815.69;;;20.25;59.24
48244;BME280;34053;51.088;6.572;2023-07-20T01:45:44;100813.97;;;20.24;58.66
48244;BME280;34053;51.088;6.572;2023-07-20T01:48:35;100819.38;;;20.09;60.16
48244;BME280;34053;51.088;6.572;2023-07-20T01:51:26;100816.41;;;20.14;59.69
48244;BME280;34053;51.088;6.572;2023-07-20T01:54:16;100811.91;;;20.15;60.14
48244;BME280;34053;51.088;6.572;2023-07-20T01:57:07;100810.72;;;20.06;59.74
48244;BME280;34053;51.088;6.572;2023-07-20T01:59:58;100808.81;;;20.08;59.16
48244;BME280;34053;51.088;6.572;2023-07-20T02:02:49;100815.09;;;20.07;58.76
48244;BME280;34053;51.088;6.572;2023-07-20T02:05:42;100805.59;;;20.03;59.16
48244;BME280;34053;51.088;6.572;2023-07-20T02:08:33;100810.63;;;20.07;58.47
48244;BME280;34053;51.088;6.572;2023-07-20T02:11:24;100810.44;;;19.96;61.74
48244;BME280;34053;51.088;6.572;2023-07-20T02:14:14;100805.25;;;19.94;60.98
48244;BME280;34053;51.088;6.572;2023-07-20T02:17:05;100806.28;;;19.92;60.74
48244;BME280;34053;51.088;6.572;2023-07-20T02:19:56;100804.19;;;19.97;60.19
48244;BME280;34053;51.088;6.572;2023-07-20T02:22:50;100798.75;;;19.84;61.45
48244;BME280;34053;51.088;6.572;2023-07-20T02:25:41;100806.31;;;19.77;61.97
48244;BME280;34053;51.088;6.572;2023-07-20T02:28:31;100805.22;;;19.53;64.21
48244;BME280;34053;51.088;6.572;2023-07-20T02:31:22;100803.03;;;19.45;63.89
48244;BME280;34053;51.088;6.572;2023-07-20T02:34:13;100806.72;;;19.57;62.42
48244;BME280;34053;51.088;6.572;2023-07-20T02:37:04;100802.09;;;19.46;63.61
48244;BME280;34053;51.088;6.572;2023-07-20T02:39:55;100804.34;;;19.52;62.22
48244;BME280;34053;51.088;6.572;2023-07-20T02:42:49;100803.88;;;19.60;62.63
48244;BME280;34053;51.088;6.572;2023-07-20T02:45:40;100800.06;;;19.64;61.69
48244;BME280;34053;51.088;6.572;2023-07-20T02:48:32;100800.94;;;19.64;61.49
48244;BME280;34053;51.088;6.572;2023-07-20T02:51:23;100803.97;;;19.58;61.14
48244;BME280;34053;51.088;6.572;2023-07-20T02:54:14;100803.63;;;19.50;62.55
48244;BME280;34053;51.088;6.572;2023-07-20T02:57:05;100811.00;;;19.59;61.30
48244;BME280;34053;51.088;6.572;2023-07-20T02:59:56;100805.59;;;19.61;60.78
48244;BME280;34053;51.088;6.572;2023-07-20T03:02:48;100812.16;;;19.55;60.49
48244;BME280;34053;51.088;6.572;2023-07-20T03:05:42;100808.63;;;19.55;60.47
48244;BME280;34053;51.088;6.572;2023-07-20T03:08:33;100811.97;;;19.44;61.54
48244;BME280;34053;51.088;6.572;2023-07-20T03:11:24;100818.81;;;19.48;60.91
48244;BME280;34053;51.088;6.572;2023-07-20T03:14:15;100817.94;;;19.47;61.08
48244;BME280;34053;51.088;6.572;2023-07-20T03:17:05;100825.19;;;19.45;61.06
48244;BME280;34053;51.088;6.572;2023-07-20T03:19:56;100828.69;;;19.46;60.48
48244;BME280;34053;51.088;6.572;2023-07-20T03:22:47;100827.84;;;19.45;61.71
48244;BME280;34053;51.088;6.572;2023-07-20T03:25:38;100823.84;;;19.38;61.21
48244;BME280;34053;51.088;6.572;2023-07-20T03:28:29;100823.41;;;19.31;63.10
48244;BME280;34053;51.088;6.572;2023-07-20T03:31:20;100823.66;;;19.41;60.94
48244;BME280;34053;51.088;6.572;2023-07-20T03:34:10;100826.44;;;19.40;60.43
48244;BME280;34053;51.088;6.572;2023-07-20T03:37:01;100827.28;;;19.40;60.48
48244;BME280;34053;51.088;6.572;2023-07-20T03:39:54;100830.50;;;19.45;61.23
48244;BME280;34053;51.088;6.572;2023-07-20T03:42:45;100834.59;;;19.22;62.46
48244;BME280;34053;51.088;6.572;2023-07-20T03:45:36;100835.75;;;19.32;62.12
48244;BME280;34053;51.088;6.572;2023-07-20T03:48:27;100837.91;;;19.40;62.12
48244;BME280;34053;51.088;6.572;2023-07-20T03:51:38;100837.47;;;19.33;61.38
48244;BME280;34053;51.088;6.572;2023-07-20T03:54:29;100843.63;;;19.34;62.43
48244;BME280;34053;51.088;6.572;2023-07-20T03:57:20;100837.25;;;19.37;61.48
48244;BME280;34053;51.088;6.572;2023-07-20T04:00:11;100839.03;;;19.22;64.31
48244;BME280;34053;51.088;6.572;2023-07-20T04:03:02;100835.53;;;19.21;62.64
48244;BME280;34053;51.088;6.572;2023-07-20T04:05:54;100841.53;;;19.25;62.62
48244;BME280;34053;51.088;6.572;2023-07-20T04:08:48;100844.38;;;19.22;62.32
48244;BME280;34053;51.088;6.572;2023-07-20T04:11:39;100850.38;;;19.25;61.12
48244;BME280;34053;51.088;6.572;2023-07-20T04:14:31;100855.00;;;19.22;62.00
48244;BME280;34053;51.088;6.572;2023-07-20T04:17:21;100855.00;;;19.22;62.27
48244;BME280;34053;51.088;6.572;2023-07-20T04:20:17;100852.28;;;19.23;62.82
48244;BME280;34053;51.088;6.572;2023-07-20T04:23:08;100855.88;;;19.22;63.01
48244;BME280;34053;51.088;6.572;2023-07-20T04:25:59;100855.22;;;19.18;62.51
48244;BME280;34053;51.088;6.572;2023-07-20T04:28:50;100860.16;;;19.25;62.07
48244;BME280;34053;51.088;6.572;2023-07-20T04:31:41;100865.28;;;19.28;63.18
48244;BME280;34053;51.088;6.572;2023-07-20T04:34:32;100864.91;;;19.19;62.68
48244;BME280;34053;51.088;6.572;2023-07-20T04:37:22;100863.47;;;19.28;63.48
48244;BME280;34053;51.088;6.572;2023-07-20T04:40:15;100865.19;;;19.15;64.67
48244;BME280;34053;51.088;6.572;2023-07-20T04:43:06;100870.03;;;19.23;62.62
48244;BME280;34053;51.088;6.572;2023-07-20T04:45:57;100860.16;;;19.25;63.91
48244;BME280;34053;51.088;6.572;2023-07-20T04:48:48;100873.34;;;19.12;65.11
48244;BME280;34053;51.088;6.572;2023-07-20T04:51:39;100872.78;;;19.07;64.01
48244;BME280;34053;51.088;6.572;2023-07-20T04:54:30;100867.84;;;18.84;65.75
48244;BME280;34053;51.088;6.572;2023-07-20T04:57:23;100867.53;;;19.05;63.55
48244;BME280;34053;51.088;6.572;2023-07-20T05:00:14;100868.41;;;18.90;66.14
48244;BME280;34053;51.088;6.572;2023-07-20T05:03:05;100872.56;;;19.10;64.39
48244;BME280;34053;51.088;6.572;2023-07-20T05:05:57;100863.97;;;19.21;62.95
48244;BME280;34053;51.088;6.572;2023-07-20T05:08:48;100872.78;;;19.21;63.95
48244;BME280;34053;51.088;6.572;2023-07-20T05:11:39;100864.88;;;19.05;65.04
48244;BME280;34053;51.088;6.572;2023-07-20T05:14:29;100864.78;;;18.76;66.55
48244;BME280;34053;51.088;6.572;2023-07-20T05:17:20;100868.03;;;19.12;64.61
48244;BME280;34053;51.088;6.572;2023-07-20T05:20:11;100871.16;;;19.04;66.06
48244;BME280;34053;51.088;6.572;2023-07-20T05:23:03;100869.31;;;18.60;68.90
48244;BME280;34053;51.088;6.572;2023-07-20T05:25:58;100873.31;;;18.67;67.87
48244;BME280;34053;51.088;6.572;2023-07-20T05:28:49;100876.09;;;18.96;65.82
48244;BME280;34053;51.088;6.572;2023-07-20T05:31:39;100883.31;;;18.78;66.83
48244;BME280;34053;51.088;6.572;2023-07-20T05:34:30;100884.72;;;18.99;65.40
48244;BME280;34053;51.088;6.572;2023-07-20T05:37:21;100878.56;;;19.13;64.70
48244;BME280;34053;51.088;6.572;2023-07-20T05:40:13;100879.53;;;19.12;66.00
48244;BME280;34053;51.088;6.572;2023-07-20T05:43:05;100876.09;;;19.10;65.05
48244;BME280;34053;51.088;6.572;2023-07-20T05:45:56;100874.28;;;19.11;65.44
48244;BME280;34053;51.088;6.572;2023-07-20T05:48:47;100878.94;;;19.07;66.52
48244;BME280;34053;51.088;6.572;2023-07-20T05:51:37;100881.19;;;18.99;66.20
48244;BME280;34053;51.088;6.572;2023-07-20T05:54:28;100881.84;;;18.72;68.87
48244;BME280;34053;51.088;6.572;2023-07-20T05:57:20;100880.44;;;18.97;67.08
48244;BME280;34053;51.088;6.572;2023-07-20T06:00:11;100883.00;;;18.68;69.33
48244;BME280;34053;51.088;6.572;2023-07-20T06:03:03;100888.03;;;18.72;69.41
48244;BME280;34053;51.088;6.572;2023-07-20T06:05:59;100889.25;;;18.67;69.50
48244;BME280;34053;51.088;6.572;2023-07-20T06:08:51;100893.28;;;19.05;66.45
48244;BME280;34053;51.088;6.572;2023-07-20T06:11:42;100892.44;;;19.18;65.21
48244;BME280;34053;51.088;6.572;2023-07-20T06:14:34;100902.28;;;19.02;67.23
48244;BME280;34053;51.088;6.572;2023-07-20T06:17:24;100905.25;;;18.81;68.13
48244;BME280;34053;51.088;6.572;2023-07-20T06:20:15;100907.53;;;18.57;69.77
48244;BME280;34053;51.088;6.572;2023-07-20T06:23:07;100903.50;;;18.96;67.43
48244;BME280;34053;51.088;6.572;2023-07-20T06:25:58;100901.38;;;19.17;65.90
48244;BME280;34053;51.088;6.572;2023-07-20T06:28:49;100907.19;;;19.24;65.32
48244;BME280;34053;51.088;6.572;2023-07-20T06:31:39;100911.56;;;18.64;69.81
48244;BME280;34053;51.088;6.572;2023-07-20T06:34:30;100897.06;;;18.70;68.48
48244;BME280;34053;51.088;6.572;2023-07-20T06:37:21;100902.78;;;19.09;66.88
48244;BME280;34053;51.088;6.572;2023-07-20T06:40:12;100901.63;;;18.98;67.81
48244;BME280;34053;51.088;6.572;2023-07-20T06:43:03;100907.06;;;19.11;66.66
48244;BME280;34053;51.088;6.572;2023-07-20T06:45:53;100901.75;;;18.65;70.46
48244;BME280;34053;51.088;6.572;2023-07-20T06:48:45;100897.91;;;18.70;69.92
48244;BME280;34053;51.088;6.572;2023-07-20T06:51:35;100902.09;;;19.05;67.90
48244;BME280;34053;51.088;6.572;2023-07-20T06:54:26;100902.69;;;18.80;68.90
48244;BME280;34053;51.088;6.572;2023-07-20T06:57:17;100911.78;;;18.76;68.85
48244;BME280;34053;51.088;6.572;2023-07-20T07:00:08;100911.81;;;18.60;69.46
48244;BME280;34053;51.088;6.572;2023-07-20T07:02:59;100922.97;;;18.66;68.58
48244;BME280;34053;51.088;6.572;2023-07-20T07:05:55;100924.44;;;18.86;67.41
48244;BME280;34053;51.088;6.572;2023-07-20T07:08:45;100921.09;;;18.36;69.49
48244;BME280;34053;51.088;6.572;2023-07-20T07:11:36;100935.06;;;18.08;70.29
48244;BME280;34053;51.088;6.572;2023-07-20T07:14:27;100925.09;;;18.76;66.78
48244;BME280;34053;51.088;6.572;2023-07-20T07:17:18;100930.25;;;18.47;68.60
48244;BME280;34053;51.088;6.572;2023-07-20T07:20:09;100920.06;;;18.55;68.15
48244;BME280;34053;51.088;6.572;2023-07-20T07:22:59;100921.03;;;18.84;66.96
48244;BME280;34053;51.088;6.572;2023-07-20T07:25:51;100919.31;;;18.83;66.77
48244;BME280;34053;51.088;6.572;2023-07-20T07:28:42;100915.50;;;19.03;65.25
48244;BME280;34053;51.088;6.572;2023-07-20T07:31:34;100925.75;;;18.79;66.01
48244;BME280;34053;51.088;6.572;2023-07-20T07:34:26;100922.03;;;18.98;64.90
48244;BME280;34053;51.088;6.572;2023-07-20T07:37:16;100925.03;;;18.92;66.20
48244;BME280;34053;51.088;6.572;2023-07-20T07:40:08;100930.81;;;18.84;67.23
48244;BME280;34053;51.088;6.572;2023-07-20T07:42:59;100935.41;;;18.80;66.57
48244;BME280;34053;51.088;6.572;2023-07-20T07:45:50;100935.81;;;18.88;65.90
48244;BME280;34053;51.088;6.572;2023-07-20T07:48:42;100940.09;;;19.07;65.26
48244;BME280;34053;51.088;6.572;2023-07-20T07:51:32;100939.66;;;19.15;64.42
48244;BME280;34053;51.088;6.572;2023-07-20T07:54:23;100945.22;;;18.96;65.68
48244;BME280;34053;51.088;6.572;2023-07-20T07:57:14;100942.97;;;18.88;64.80
48244;BME280;34053;51.088;6.572;2023-07-20T08:00:06;100946.19;;;19.09;64.62
48244;BME280;34053;51.088;6.572;2023-07-20T08:03:02;100942.97;;;19.04;64.64
48244;BME280;34053;51.088;6.572;2023-07-20T08:05:55;100948.63;;;18.98;64.37
48244;BME280;34053;51.088;6.572;2023-07-20T08:08:46;100949.41;;;19.14;64.01
48244;BME280;34053;51.088;6.572;2023-07-20T08:11:39;100946.69;;;19.16;63.87
48244;BME280;34053;51.088;6.572;2023-07-20T08:14:30;100943.09;;;19.31;63.66
48244;BME280;34053;51.088;6.572;2023-07-20T08:17:20;100946.22;;;19.38;63.03
48244;BME280;34053;51.088;6.572;2023-07-20T08:20:12;100952.31;;;19.40;61.82
48244;BME280;34053;51.088;6.572;2023-07-20T08:23:03;100954.03;;;19.41;61.83
48244;BME280;34053;51.088;6.572;2023-07-20T08:25:54;100949.47;;;19.43;61.69
48244;BME280;34053;51.088;6.572;2023-07-20T08:28:45;100948.31;;;19.33;61.79
48244;BME280;34053;51.088;6.572;2023-07-20T08:31:38;100946.44;;;19.35;61.82
48244;BME280;34053;51.088;6.572;2023-07-20T08:34:30;100947.59;;;19.45;61.99
48244;BME280;34053;51.088;6.572;2023-07-20T08:37:20;100948.66;;;19.57;62.09
48244;BME280;34053;51.088;6.572;2023-07-20T08:40:12;100949.38;;;19.45;61.61
48244;BME280;34053;51.088;6.572;2023-07-20T08:43:04;100951.09;;;19.46;61.82
48244;BME280;34053;51.088;6.572;2023-07-20T08:45:55;100956.03;;;19.52;61.19
48244;BME280;34053;51.088;6.572;2023-07-20T08:48:47;100948.72;;;19.41;60.76
48244;BME280;34053;51.088;6.572;2023-07-20T08:51:39;100951.75;;;19.35;58.28
48244;BME280;34053;51.088;6.572;2023-07-20T08:54:31;100959.78;;;19.19;56.56
48244;BME280;34053;51.088;6.572;2023-07-20T08:57:25;100947.94;;;19.39;58.07
48244;BME280;34053;51.088;6.572;2023-07-20T09:00:16;100949.66;;;19.26;57.93
48244;BME280;34053;51.088;6.572;2023-07-20T09:03:08;100939.78;;;19.42;58.26
48244;BME280;34053;51.088;6.572;2023-07-20T09:06:00;100942.06;;;19.48;58.75
48244;BME280;34053;51.088;6.572;2023-07-20T09:08:51;100947.94;;;19.39;58.41
48244;BME280;34053;51.088;6.572;2023-07-20T09:11:42;100942.44;;;19.42;58.29
48244;BME280;34053;51.088;6.572;2023-07-20T09:14:37;100941.88;;;19.52;58.43
48244;BME280;34053;51.088;6.572;2023-07-20T09:17:28;100947.78;;;19.57;58.37
48244;BME280;34053;51.088;6.572;2023-07-20T09:20:19;100941.78;;;19.67;57.59
48244;BME280;34053;51.088;6.572;2023-07-20T09:23:10;100944.91;;;19.74;56.48
48244;BME280;34053;51.088;6.572;2023-07-20T09:26:13;100947.47;;;19.76;56.03
48244;BME280;34053;51.088;6.572;2023-07-20T09:29:07;100945.47;;;19.79;56.68
48244;BME280;34053;51.088;6.572;2023-07-20T09:32:07;100943.41;;;19.99;55.47
48244;BME280;34053;51.088;6.572;2023-07-20T09:34:59;100943.44;;;19.85;53.68
48244;BME280;34053;51.088;6.572;2023-07-20T09:37:54;100956.06;;;19.95;55.19
48244;BME280;34053;51.088;6.572;2023-07-20T09:40:45;100954.66;;;19.90;56.37
48244;BME280;34053;51.088;6.572;2023-07-20T09:43:36;100934.22;;;19.90;56.17
48244;BME280;34053;51.088;6.572;2023-07-20T09:46:41;100936.31;;;20.00;56.52
48244;BME280;34053;51.088;6.572;2023-07-20T09:49:32;100932.28;;;20.07;56.72
48244;BME280;34053;51.088;6.572;2023-07-20T09:52:23;100934.94;;;20.07;56.73
48244;BME280;34053;51.088;6.572;2023-07-20T09:55:15;100931.78;;;20.15;55.45
48244;BME280;34053;51.088;6.572;2023-07-20T09:58:08;100934.66;;;20.11;55.65
48244;BME280;34053;51.088;6.572;2023-07-20T10:01:03;100932.94;;;20.10;54.91
48244;BME280;34053;51.088;6.572;2023-07-20T10:03:58;100923.59;;;20.18;54.11
48244;BME280;34053;51.088;6.572;2023-07-20T10:06:54;100927.28;;;20.29;54.20
48244;BME280;34053;51.088;6.572;2023-07-20T10:09:48;100924.66;;;20.42;53.68
48244;BME280;34053;51.088;6.572;2023-07-20T10:12:39;100922.19;;;20.39;53.21
48244;BME280;34053;51.088;6.572;2023-07-20T10:15:37;100933.72;;;20.40;53.57
48244;BME280;34053;51.088;6.572;2023-07-20T10:21:31;100923.31;;;20.50;53.95
48244;BME280;34053;51.088;6.572;2023-07-20T10:24:23;100924.41;;;20.60;52.08
48244;BME280;34053;51.088;6.572;2023-07-20T10:27:15;100919.09;;;20.60;53.17
48244;BME280;34053;51.088;6.572;2023-07-20T10:30:06;100928.28;;;20.69;52.28
48244;BME280;34053;51.088;6.572;2023-07-20T10:32:57;100926.47;;;20.69;52.59
48244;BME280;34053;51.088;6.572;2023-07-20T10:35:53;100924.66;;;20.70;53.10
48244;BME280;34053;51.088;6.572;2023-07-20T10:41:39;100919.38;;;20.83;52.01
48244;BME280;34053;51.088;6.572;2023-07-20T10:44:33;100911.59;;;20.80;51.57
48244;BME280;34053;51.088;6.572;2023-07-20T10:47:25;100912.44;;;20.80;51.60
48244;BME280;34053;51.088;6.572;2023-07-20T10:50:20;100903.69;;;20.78;51.54
48244;BME280;34053;51.088;6.572;2023-07-20T10:53:14;100904.34;;;20.82;51.44
48244;BME280;34053;51.088;6.572;2023-07-20T10:56:12;100901.56;;;20.83;50.89
48244;BME280;34053;51.088;6.572;2023-07-20T10:59:35;100893.59;;;20.96;51.59
48244;BME280;34053;51.088;6.572;2023-07-20T11:02:27;100893.38;;;20.99;50.17
48244;BME280;34053;51.088;6.572;2023-07-20T11:05:35;100894.16;;;21.14;50.47
48244;BME280;34053;51.088;6.572;2023-07-20T11:08:42;100888.69;;;21.16;50.86
48244;BME280;34053;51.088;6.572;2023-07-20T11:11:34;100879.75;;;21.17;51.55
48244;BME280;34053;51.088;6.572;2023-07-20T11:14:26;100888.72;;;21.29;50.18
48244;BME280;34053;51.088;6.572;2023-07-20T11:17:17;100891.38;;;21.29;49.96
48244;BME280;34053;51.088;6.572;2023-07-20T11:20:13;100892.13;;;21.31;49.42
48244;BME280;34053;51.088;6.572;2023-07-20T11:23:04;100888.06;;;21.25;49.71
48244;BME280;34053;51.088;6.572;2023-07-20T11:25:55;100889.53;;;21.29;50.60
48244;BME280;34053;51.088;6.572;2023-07-20T11:28:49;100884.22;;;21.29;50.79
48244;BME280;34053;51.088;6.572;2023-07-20T11:31:43;100882.81;;;21.36;50.55
48244;BME280;34053;51.088;6.572;2023-07-20T11:34:34;100883.78;;;21.48;50.41
48244;BME280;34053;51.088;6.572;2023-07-20T11:37:25;100879.94;;;21.52;49.53
48244;BME280;34053;51.088;6.572;2023-07-20T11:40:16;100880.25;;;21.48;48.91
48244;BME280;34053;51.088;6.572;2023-07-20T11:43:07;100879.94;;;21.39;48.14
48244;BME280;34053;51.088;6.572;2023-07-20T11:45:59;100882.16;;;21.46;45.75
48244;BME280;34053;51.088;6.572;2023-07-20T11:48:56;100880.78;;;21.53;46.15
48244;BME280;34053;51.088;6.572;2023-07-20T11:51:47;100873.75;;;21.52;47.94
48244;BME280;34053;51.088;6.572;2023-07-20T11:54:39;100869.47;;;21.62;46.74
48244;BME280;34053;51.088;6.572;2023-07-20T11:57:30;100871.28;;;21.49;46.37
48244;BME280;34053;51.088;6.572;2023-07-20T12:00:24;100861.88;;;21.56;46.69
48244;BME280;34053;51.088;6.572;2023-07-20T12:03:15;100862.53;;;21.60;46.79
48244;BME280;34053;51.088;6.572;2023-07-20T12:06:07;100865.50;;;21.55;46.19
48244;BME280;34053;51.088;6.572;2023-07-20T12:08:59;100870.22;;;21.64;46.98
48244;BME280;34053;51.088;6.572;2023-07-20T12:11:50;100863.91;;;21.52;45.82
48244;BME280;34053;51.088;6.572;2023-07-20T12:14:41;100870.09;;;21.53;47.06
48244;BME280;34053;51.088;6.572;2023-07-20T12:17:32;100872.06;;;21.64;47.59
48244;BME280;34053;51.088;6.572;2023-07-20T12:20:28;100867.09;;;21.70;48.53
48244;BME280;34053;51.088;6.572;2023-07-20T12:23:19;100866.69;;;21.77;48.66
48244;BME280;34053;51.088;6.572;2023-07-20T12:26:10;100859.69;;;21.87;49.33
48244;BME280;34053;51.088;6.572;2023-07-20T12:29:01;100858.72;;;21.88;47.95
48244;BME280;34053;51.088;6.572;2023-07-20T12:31:54;100862.06;;;21.79;46.66
48244;BME280;34053;51.088;6.572;2023-07-20T12:34:44;100864.50;;;21.95;47.84
48244;BME280;34053;51.088;6.572;2023-07-20T12:37:35;100847.88;;;22.02;47.86
48244;BME280;34053;51.088;6.572;2023-07-20T12:40:26;100846.78;;;22.18;47.04
48244;BME280;34053;51.088;6.572;2023-07-20T12:43:17;100847.06;;;22.26;45.65
48244;BME280;34053;51.088;6.572;2023-07-20T12:46:08;100846.50;;;22.10;46.54
48244;BME280;34053;51.088;6.572;2023-07-20T12:48:59;100852.34;;;22.15;46.81
48244;BME280;34053;51.088;6.572;2023-07-20T12:51:50;100853.06;;;22.17;44.43
48244;BME280;34053;51.088;6.572;2023-07-20T12:54:41;100846.25;;;22.13;43.72
48244;BME280;34053;51.088;6.572;2023-07-20T12:57:33;100846.88;;;22.16;44.75
48244;BME280;34053;51.088;6.572;2023-07-20T13:00:24;100841.81;;;22.25;44.70
48244;BME280;34053;51.088;6.572;2023-07-20T13:03:15;100840.00;;;22.25;44.01
48244;BME280;34053;51.088;6.572;2023-07-20T13:06:09;100834.88;;;22.22;43.90
48244;BME280;34053;51.088;6.572;2023-07-20T13:09:00;100837.06;;;22.28;43.91
48244;BME280;34053;51.088;6.572;2023-07-20T13:11:51;100837.81;;;22.30;43.29
48244;BME280;34053;51.088;6.572;2023-07-20T13:14:43;100825.59;;;22.15;42.01
48244;BME280;34053;51.088;6.572;2023-07-20T13:17:35;100834.88;;;22.22;42.90
48244;BME280;34053;51.088;6.572;2023-07-20T13:20:26;100827.06;;;22.19;42.60
48244;BME280;34053;51.088;6.572;2023-07-20T13:23:18;100827.59;;;22.24;42.82
48244;BME280;34053;51.088;6.572;2023-07-20T13:26:09;100825.69;;;22.26;44.04
48244;BME280;34053;51.088;6.572;2023-07-20T13:29:00;100824.94;;;22.36;44.32
48244;BME280;34053;51.088;6.572;2023-07-20T13:31:51;100824.06;;;22.48;43.60
48244;BME280;34053;51.088;6.572;2023-07-20T13:34:41;100827.25;;;22.53;42.45
48244;BME280;34053;51.088;6.572;2023-07-20T13:37:32;100823.03;;;22.62;43.42
48244;BME280;34053;51.088;6.572;2023-07-20T13:40:24;100811.59;;;22.60;40.25
48244;BME280;34053;51.088;6.572;2023-07-20T13:43:15;100825.59;;;22.75;41.67
48244;BME280;34053;51.088;6.572;2023-07-20T13:46:05;100817.50;;;22.99;40.46
48244;BME280;34053;51.088;6.572;2023-07-20T13:48:56;100816.38;;;23.02;41.75
48244;BME280;34053;51.088;6.572;2023-07-20T13:51:47;100810.44;;;22.98;40.62
48244;BME280;34053;51.088;6.572;2023-07-20T13:54:38;100810.78;;;22.93;41.04
48244;BME280;34053;51.088;6.572;2023-07-20T13:57:28;100812.50;;;22.83;41.76
48244;BME280;34053;51.088;6.572;2023-07-20T14:00:19;100814.34;;;22.94;43.11
48244;BME280;34053;51.088;6.572;2023-07-20T14:03:10;100811.66;;;22.94;44.41
48244;BME280;34053;51.088;6.572;2023-07-20T14:06:01;100810.78;;;22.82;43.62
48244;BME280;34053;51.088;6.572;2023-07-20T14:08:52;100802.91;;;22.81;43.69
48244;BME280;34053;51.088;6.572;2023-07-20T14:11:43;100802.03;;;22.80;44.31
48244;BME280;34053;51.088;6.572;2023-07-20T14:14:34;100808.84;;;22.84;43.11
48244;BME280;34053;51.088;6.572;2023-07-20T14:17:25;100795.00;;;22.90;44.33
48244;BME280;34053;51.088;6.572;2023-07-20T14:20:16;100794.25;;;22.88;44.55
48244;BME280;34053;51.088;6.572;2023-07-20T14:23:06;100791.84;;;22.97;44.39
48244;BME280;34053;51.088;6.572;2023-07-20T14:25:57;100796.22;;;23.09;44.88
48244;BME280;34053;51.088;6.572;2023-07-20T14:28:48;100789.69;;;23.24;43.89
48244;BME280;34053;51.088;6.572;2023-07-20T14:31:39;100790.63;;;23.35;44.75
48244;BME280;34053;51.088;6.572;2023-07-20T14:34:30;100787.94;;;23.46;44.04
48244;BME280;34053;51.088;6.572;2023-07-20T14:37:20;100791.88;;;23.31;43.20
48244;BME280;34053;51.088;6.572;2023-07-20T14:40:11;100789.06;;;23.55;43.08
48244;BME280;34053;51.088;6.572;2023-07-20T14:43:02;100782.59;;;23.57;43.55
48244;BME280;34053;51.088;6.572;2023-07-20T14:45:53;100774.78;;;23.54;43.30
48244;BME280;34053;51.088;6.572;2023-07-20T14:48:47;100776.88;;;23.51;43.64
48244;BME280;34053;51.088;6.572;2023-07-20T14:51:38;100778.34;;;23.44;43.70
48244;BME280;34053;51.088;6.572;2023-07-20T14:54:33;100780.88;;;23.45;42.73
48244;BME280;34053;51.088;6.572;2023-07-20T14:57:24;100773.22;;;23.40;41.92
48244;BME280;34053;51.088;6.572;2023-07-20T15:00:15;100779.63;;;23.61;42.91
48244;BME280;34053;51.088;6.572;2023-07-20T15:03:06;100778.25;;;23.34;42.63
48244;BME280;34053;51.088;6.572;2023-07-20T15:06:01;100761.91;;;23.14;43.42
48244;BME280;34053;51.088;6.572;2023-07-20T15:08:51;100762.75;;;23.49;43.16
48244;BME280;34053;51.088;6.572;2023-07-20T15:11:42;100766.16;;;23.51;43.25